sensor_id;sensor_type;location;lat;lon;timestamp;P1;durP1;ratioP1;P2;durP2;ratioP2
57826;SDS011;43656;57.746;11.780;2023-08-30T00:00:06;3.58;;;1.38;;
57826;SDS011;43656;57.746;11.780;2023-08-30T00:02:32;2.67;;;1.30;;
57826;SDS011;43656;57.746;11.780;2023-08-30T00:05:02;4.88;;;1.50;;
57826;SDS011;43656;57.746;11.780;2023-08-30T00:07:29;3.38;;;1.30;;
57826;SDS011;43656;57.746;11.780;2023-08-30T00:09:55;5.97;;;1.38;;
57826;SDS011;43656;57.746;11.780;2023-08-30T00:12:21;4.05;;;1.58;;
57826;SDS011;43656;57.746;11.780;2023-08-30T00:14:47;7.30;;;2.08;;
57826;SDS011;43656;57.746;11.780;2023-08-30T00:17:12;10.25;;;1.75;;
57826;SDS011;43656;57.746;11.780;2023-08-30T00:19:38;5.90;;;1.65;;
57826;SDS011;43656;57.746;11.780;2023-08-30T00:22:03;5.72;;;1.70;;
57826;SDS011;43656;57.746;11.780;2023-08-30T00:24:28;3.50;;;1.85;;
57826;SDS011;43656;57.746;11.780;2023-08-30T00:26:54;4.47;;;1.80;;
57826;SDS011;43656;57.746;11.780;2023-08-30T00:29:19;6.45;;;1.90;;
57826;SDS011;43656;57.746;11.780;2023-08-30T00:31:45;4.68;;;1.70;;
57826;SDS011;43656;57.746;11.780;2023-08-30T00:34:10;5.07;;;1.80;;
57826;SDS011;43656;57.746;11.780;2023-08-30T00:36:36;6.15;;;1.85;;
57826;SDS011;43656;57.746;11.780;2023-08-30T00:39:01;7.28;;;2.00;;
57826;SDS011;43656;57.746;11.780;2023-08-30T00:41:29;5.43;;;1.60;;
57826;SDS011;43656;57.746;11.780;2023-08-30T00:43:54;4.03;;;1.90;;
57826;SDS011;43656;57.746;11.780;2023-08-30T00:46:20;5.22;;;1.90;;
57826;SDS011;43656;57.746;11.780;2023-08-30T00:48:45;4.68;;;2.20;;
57826;SDS011;43656;57.746;11.780;2023-08-30T00:51:11;4.72;;;1.80;;
57826;SDS011;43656;57.746;11.780;2023-08-30T00:53:36;6.00;;;2.05;;
57826;SDS011;43656;57.746;11.780;2023-08-30T00:56:02;5.55;;;1.70;;
57826;SDS011;43656;57.746;11.780;2023-08-30T00:58:28;7.68;;;1.80;;
57826;SDS011;43656;57.746;11.780;2023-08-30T01:00:54;7.20;;;1.95;;
57826;SDS011;43656;57.746;11.780;2023-08-30T01:03:20;4.90;;;1.90;;
57826;SDS011;43656;57.746;11.780;2023-08-30T01:05:46;5.45;;;2.00;;
57826;SDS011;43656;57.746;11.780;2023-08-30T01:08:12;5.20;;;2.17;;
57826;SDS011;43656;57.746;11.780;2023-08-30T01:13:27;7.03;;;2.17;;
57826;SDS011;43656;57.746;11.780;2023-08-30T01:15:55;5.35;;;2.13;;
57826;SDS011;43656;57.746;11.780;2023-08-30T01:18:25;7.13;;;2.40;;
57826;SDS011;43656;57.746;11.780;2023-08-30T01:20:53;4.38;;;2.10;;
57826;SDS011;43656;57.746;11.780;2023-08-30T01:28:33;7.18;;;2.55;;
57826;SDS011;43656;57.746;11.780;2023-08-30T01:31:00;5.28;;;2.10;;
57826;SDS011;43656;57.746;11.780;2023-08-30T01:33:27;6.93;;;2.50;;
57826;SDS011;43656;57.746;11.780;2023-08-30T01:35:55;7.47;;;2.60;;
57826;SDS011;43656;57.746;11.780;2023-08-30T01:38:21;7.68;;;2.20;;
57826;SDS011;43656;57.746;11.780;2023-08-30T01:40:48;5.57;;;2.50;;
57826;SDS011;43656;57.746;11.780;2023-08-30T01:43:15;3.10;;;2.45;;
57826;SDS011;43656;57.746;11.780;2023-08-30T01:45:42;4.65;;;2.40;;
57826;SDS011;43656;57.746;11.780;2023-08-30T01:48:09;4.65;;;2.72;;
57826;SDS011;43656;57.746;11.780;2023-08-30T01:50:38;7.72;;;2.70;;
57826;SDS011;43656;57.746;11.780;2023-08-30T01:53:04;4.88;;;2.50;;
57826;SDS011;43656;57.746;11.780;2023-08-30T01:55:31;7.28;;;2.78;;
57826;SDS011;43656;57.746;11.780;2023-08-30T01:57:58;8.00;;;2.70;;
57826;SDS011;43656;57.746;11.780;2023-08-30T02:00:23;5.65;;;2.63;;
57826;SDS011;43656;57.746;11.780;2023-08-30T02:02:49;4.97;;;2.60;;
57826;SDS011;43656;57.746;11.780;2023-08-30T02:05:14;6.07;;;2.80;;
57826;SDS011;43656;57.746;11.780;2023-08-30T02:07:42;6.18;;;2.80;;
57826;SDS011;43656;57.746;11.780;2023-08-30T02:10:16;5.35;;;2.58;;
57826;SDS011;43656;57.746;11.780;2023-08-30T02:12:47;4.32;;;2.65;;
57826;SDS011;43656;57.746;11.780;2023-08-30T02:15:14;6.57;;;3.55;;
57826;SDS011;43656;57.746;11.780;2023-08-30T02:17:40;6.60;;;3.08;;
57826;SDS011;43656;57.746;11.780;2023-08-30T02:20:06;7.13;;;3.97;;
57826;SDS011;43656;57.746;11.780;2023-08-30T02:22:33;5.53;;;3.28;;
57826;SDS011;43656;57.746;11.780;2023-08-30T02:24:59;5.68;;;3.50;;
57826;SDS011;43656;57.746;11.780;2023-08-30T02:27:26;6.68;;;3.80;;
57826;SDS011;43656;57.746;11.780;2023-08-30T02:29:51;5.95;;;3.30;;
57826;SDS011;43656;57.746;11.780;2023-08-30T02:32:17;6.20;;;3.55;;
57826;SDS011;43656;57.746;11.780;2023-08-30T02:34:46;6.82;;;3.50;;
57826;SDS011;43656;57.746;11.780;2023-08-30T02:37:14;8.48;;;4.00;;
57826;SDS011;43656;57.746;11.780;2023-08-30T02:39:40;6.70;;;3.67;;
57826;SDS011;43656;57.746;11.780;2023-08-30T02:42:05;7.18;;;3.97;;
57826;SDS011;43656;57.746;11.780;2023-08-30T02:44:31;11.43;;;4.10;;
57826;SDS011;43656;57.746;11.780;2023-08-30T02:46:56;7.88;;;3.63;;
57826;SDS011;43656;57.746;11.780;2023-08-30T02:49:22;6.28;;;3.38;;
57826;SDS011;43656;57.746;11.780;2023-08-30T02:51:47;7.63;;;3.50;;
57826;SDS011;43656;57.746;11.780;2023-08-30T02:54:12;7.75;;;3.33;;
57826;SDS011;43656;57.746;11.780;2023-08-30T02:56:38;7.63;;;3.50;;
57826;SDS011;43656;57.746;11.780;2023-08-30T02:59:05;7.53;;;3.60;;
57826;SDS011;43656;57.746;11.780;2023-08-30T03:01:30;10.00;;;4.18;;
57826;SDS011;43656;57.746;11.780;2023-08-30T03:03:55;11.98;;;3.60;;
57826;SDS011;43656;57.746;11.780;2023-08-30T03:06:21;6.78;;;3.22;;
57826;SDS011;43656;57.746;11.780;2023-08-30T03:08:46;8.52;;;3.03;;
57826;SDS011;43656;57.746;11.780;2023-08-30T03:11:12;7.82;;;3.03;;
57826;SDS011;43656;57.746;11.780;2023-08-30T03:13:38;4.72;;;2.70;;
57826;SDS011;43656;57.746;11.780;2023-08-30T03:16:13;5.80;;;2.47;;
57826;SDS011;43656;57.746;11.780;2023-08-30T03:18:40;6.22;;;2.60;;
57826;SDS011;43656;57.746;11.780;2023-08-30T03:21:06;5.43;;;2.75;;
57826;SDS011;43656;57.746;11.780;2023-08-30T03:23:32;7.13;;;2.60;;
57826;SDS011;43656;57.746;11.780;2023-08-30T03:25:58;7.13;;;2.50;;
57826;SDS011;43656;57.746;11.780;2023-08-30T03:28:24;9.45;;;2.53;;
57826;SDS011;43656;57.746;11.780;2023-08-30T03:30:50;6.10;;;2.70;;
57826;SDS011;43656;57.746;11.780;2023-08-30T03:33:15;6.90;;;2.75;;
57826;SDS011;43656;57.746;11.780;2023-08-30T03:35:40;5.10;;;2.80;;
57826;SDS011;43656;57.746;11.780;2023-08-30T03:38:06;6.95;;;2.80;;
57826;SDS011;43656;57.746;11.780;2023-08-30T03:40:32;7.43;;;2.70;;
57826;SDS011;43656;57.746;11.780;2023-08-30T03:42:57;8.35;;;3.10;;
57826;SDS011;43656;57.746;11.780;2023-08-30T03:45:22;6.88;;;2.88;;
57826;SDS011;43656;57.746;11.780;2023-08-30T03:47:48;5.95;;;3.13;;
57826;SDS011;43656;57.746;11.780;2023-08-30T03:50:13;9.90;;;3.10;;
57826;SDS011;43656;57.746;11.780;2023-08-30T03:52:39;6.50;;;3.28;;
57826;SDS011;43656;57.746;11.780;2023-08-30T03:55:05;6.75;;;3.63;;
57826;SDS011;43656;57.746;11.780;2023-08-30T03:57:30;7.40;;;3.28;;
57826;SDS011;43656;57.746;11.780;2023-08-30T03:59:56;5.97;;;3.17;;
57826;SDS011;43656;57.746;11.780;2023-08-30T04:02:21;8.38;;;3.70;;
57826;SDS011;43656;57.746;11.780;2023-08-30T04:04:47;7.43;;;3.50;;
57826;SDS011;43656;57.746;11.780;2023-08-30T04:07:15;8.77;;;3.55;;
57826;SDS011;43656;57.746;11.780;2023-08-30T04:09:40;8.55;;;3.42;;
57826;SDS011;43656;57.746;11.780;2023-08-30T04:12:06;7.28;;;3.88;;
57826;SDS011;43656;57.746;11.780;2023-08-30T04:14:32;7.07;;;3.45;;
57826;SDS011;43656;57.746;11.780;2023-08-30T04:16:58;10.85;;;3.80;;
57826;SDS011;43656;57.746;11.780;2023-08-30T04:19:23;6.68;;;3.70;;
57826;SDS011;43656;57.746;11.780;2023-08-30T04:21:48;7.05;;;3.70;;
57826;SDS011;43656;57.746;11.780;2023-08-30T04:24:14;11.15;;;4.13;;
57826;SDS011;43656;57.746;11.780;2023-08-30T04:26:40;7.15;;;4.00;;
57826;SDS011;43656;57.746;11.780;2023-08-30T04:29:07;6.05;;;3.67;;
57826;SDS011;43656;57.746;11.780;2023-08-30T04:31:32;8.52;;;3.30;;
57826;SDS011;43656;57.746;11.780;2023-08-30T04:33:58;5.82;;;3.03;;
57826;SDS011;43656;57.746;11.780;2023-08-30T04:36:23;9.50;;;3.15;;
57826;SDS011;43656;57.746;11.780;2023-08-30T04:38:49;6.72;;;3.25;;
57826;SDS011;43656;57.746;11.780;2023-08-30T04:41:14;10.88;;;3.72;;
57826;SDS011;43656;57.746;11.780;2023-08-30T04:43:39;8.43;;;3.65;;
57826;SDS011;43656;57.746;11.780;2023-08-30T04:46:05;8.60;;;3.72;;
57826;SDS011;43656;57.746;11.780;2023-08-30T04:48:31;7.55;;;3.63;;
57826;SDS011;43656;57.746;11.780;2023-08-30T04:51:03;7.07;;;3.63;;
57826;SDS011;43656;57.746;11.780;2023-08-30T04:53:29;6.22;;;3.60;;
57826;SDS011;43656;57.746;11.780;2023-08-30T04:55:55;6.63;;;3.15;;
57826;SDS011;43656;57.746;11.780;2023-08-30T04:58:20;6.10;;;2.88;;
57826;SDS011;43656;57.746;11.780;2023-08-30T05:00:46;7.35;;;3.00;;
57826;SDS011;43656;57.746;11.780;2023-08-30T05:03:11;8.30;;;3.20;;
57826;SDS011;43656;57.746;11.780;2023-08-30T05:05:37;9.75;;;3.10;;
57826;SDS011;43656;57.746;11.780;2023-08-30T05:08:02;7.13;;;3.20;;
57826;SDS011;43656;57.746;11.780;2023-08-30T05:10:28;7.25;;;3.22;;
57826;SDS011;43656;57.746;11.780;2023-08-30T05:12:54;5.60;;;3.10;;
57826;SDS011;43656;57.746;11.780;2023-08-30T05:15:19;8.60;;;3.03;;
57826;SDS011;43656;57.746;11.780;2023-08-30T05:17:45;9.93;;;2.97;;
57826;SDS011;43656;57.746;11.780;2023-08-30T05:20:11;11.23;;;2.97;;
57826;SDS011;43656;57.746;11.780;2023-08-30T05:22:36;8.43;;;3.00;;
57826;SDS011;43656;57.746;11.780;2023-08-30T05:25:02;11.50;;;3.10;;
57826;SDS011;43656;57.746;11.780;2023-08-30T05:27:28;8.40;;;3.15;;
57826;SDS011;43656;57.746;11.780;2023-08-30T05:29:53;4.78;;;2.67;;
57826;SDS011;43656;57.746;11.780;2023-08-30T05:32:21;10.23;;;2.75;;
57826;SDS011;43656;57.746;11.780;2023-08-30T05:34:47;8.70;;;2.95;;
57826;SDS011;43656;57.746;11.780;2023-08-30T05:37:12;13.25;;;3.10;;
57826;SDS011;43656;57.746;11.780;2023-08-30T05:39:38;5.32;;;2.58;;
57826;SDS011;43656;57.746;11.780;2023-08-30T05:42:04;6.10;;;2.33;;
57826;SDS011;43656;57.746;11.780;2023-08-30T05:44:29;7.45;;;2.60;;
57826;SDS011;43656;57.746;11.780;2023-08-30T05:46:55;6.35;;;2.22;;
57826;SDS011;43656;57.746;11.780;2023-08-30T05:49:20;11.00;;;2.50;;
57826;SDS011;43656;57.746;11.780;2023-08-30T05:51:46;5.88;;;2.33;;
57826;SDS011;43656;57.746;11.780;2023-08-30T05:54:12;5.43;;;1.92;;
57826;SDS011;43656;57.746;11.780;2023-08-30T05:56:38;5.07;;;1.98;;
57826;SDS011;43656;57.746;11.780;2023-08-30T05:59:03;9.32;;;2.58;;
57826;SDS011;43656;57.746;11.780;2023-08-30T06:01:29;9.38;;;2.25;;
57826;SDS011;43656;57.746;11.780;2023-08-30T06:03:54;8.23;;;2.05;;
57826;SDS011;43656;57.746;11.780;2023-08-30T06:06:20;6.75;;;2.10;;
57826;SDS011;43656;57.746;11.780;2023-08-30T06:08:45;7.75;;;2.20;;
57826;SDS011;43656;57.746;11.780;2023-08-30T06:11:11;3.65;;;1.90;;
57826;SDS011;43656;57.746;11.780;2023-08-30T06:13:37;8.15;;;2.20;;
57826;SDS011;43656;57.746;11.780;2023-08-30T06:16:02;4.10;;;2.05;;
57826;SDS011;43656;57.746;11.780;2023-08-30T06:18:31;8.88;;;2.38;;
57826;SDS011;43656;57.746;11.780;2023-08-30T06:21:00;10.43;;;2.50;;
57826;SDS011;43656;57.746;11.780;2023-08-30T06:23:26;6.63;;;2.10;;
57826;SDS011;43656;57.746;11.780;2023-08-30T06:25:55;6.40;;;2.22;;
57826;SDS011;43656;57.746;11.780;2023-08-30T06:28:21;8.73;;;2.25;;
57826;SDS011;43656;57.746;11.780;2023-08-30T06:30:47;9.50;;;2.20;;
57826;SDS011;43656;57.746;11.780;2023-08-30T06:33:12;6.28;;;2.10;;
57826;SDS011;43656;57.746;11.780;2023-08-30T06:35:38;8.93;;;2.45;;
57826;SDS011;43656;57.746;11.780;2023-08-30T06:38:04;6.60;;;2.20;;
57826;SDS011;43656;57.746;11.780;2023-08-30T06:40:30;7.00;;;2.45;;
57826;SDS011;43656;57.746;11.780;2023-08-30T06:42:55;8.52;;;2.38;;
57826;SDS011;43656;57.746;11.780;2023-08-30T06:45:22;9.63;;;2.30;;
57826;SDS011;43656;57.746;11.780;2023-08-30T06:47:48;7.63;;;2.40;;
57826;SDS011;43656;57.746;11.780;2023-08-30T06:50:17;8.57;;;2.50;;
57826;SDS011;43656;57.746;11.780;2023-08-30T06:52:43;5.85;;;2.03;;
57826;SDS011;43656;57.746;11.780;2023-08-30T06:55:08;4.18;;;1.85;;
57826;SDS011;43656;57.746;11.780;2023-08-30T06:57:34;6.50;;;1.90;;
57826;SDS011;43656;57.746;11.780;2023-08-30T06:59:59;7.75;;;1.92;;
57826;SDS011;43656;57.746;11.780;2023-08-30T07:02:32;3.33;;;1.58;;
57826;SDS011;43656;57.746;11.780;2023-08-30T07:05:02;4.85;;;1.90;;
57826;SDS011;43656;57.746;11.780;2023-08-30T07:07:29;4.68;;;1.80;;
57826;SDS011;43656;57.746;11.780;2023-08-30T07:09:54;4.72;;;1.80;;
57826;SDS011;43656;57.746;11.780;2023-08-30T07:12:20;7.95;;;2.28;;
57826;SDS011;43656;57.746;11.780;2023-08-30T07:14:45;6.22;;;1.85;;
57826;SDS011;43656;57.746;11.780;2023-08-30T07:17:10;7.28;;;1.60;;
57826;SDS011;43656;57.746;11.780;2023-08-30T07:19:36;8.73;;;2.00;;
57826;SDS011;43656;57.746;11.780;2023-08-30T07:22:01;4.53;;;1.83;;
57826;SDS011;43656;57.746;11.780;2023-08-30T07:24:28;5.50;;;1.70;;
57826;SDS011;43656;57.746;11.780;2023-08-30T07:26:53;5.47;;;1.40;;
57826;SDS011;43656;57.746;11.780;2023-08-30T07:29:18;5.10;;;1.67;;
57826;SDS011;43656;57.746;11.780;2023-08-30T07:31:44;4.38;;;1.65;;
57826;SDS011;43656;57.746;11.780;2023-08-30T07:34:09;3.92;;;1.75;;
57826;SDS011;43656;57.746;11.780;2023-08-30T07:36:34;6.55;;;1.60;;
57826;SDS011;43656;57.746;11.780;2023-08-30T07:39:00;5.70;;;1.80;;
57826;SDS011;43656;57.746;11.780;2023-08-30T07:41:27;2.88;;;1.45;;
57826;SDS011;43656;57.746;11.780;2023-08-30T07:43:53;3.55;;;1.50;;
57826;SDS011;43656;57.746;11.780;2023-08-30T07:46:18;4.53;;;1.80;;
57826;SDS011;43656;57.746;11.780;2023-08-30T07:48:44;4.45;;;1.52;;
57826;SDS011;43656;57.746;11.780;2023-08-30T07:51:09;4.93;;;1.52;;
57826;SDS011;43656;57.746;11.780;2023-08-30T07:53:35;3.83;;;1.50;;
57826;SDS011;43656;57.746;11.780;2023-08-30T07:56:00;3.50;;;1.40;;
57826;SDS011;43656;57.746;11.780;2023-08-30T07:58:25;3.75;;;1.38;;
57826;SDS011;43656;57.746;11.780;2023-08-30T08:00:54;4.07;;;1.60;;
57826;SDS011;43656;57.746;11.780;2023-08-30T08:03:22;3.65;;;1.55;;
57826;SDS011;43656;57.746;11.780;2023-08-30T08:05:48;2.97;;;1.27;;
57826;SDS011;43656;57.746;11.780;2023-08-30T08:08:13;4.50;;;1.35;;
57826;SDS011;43656;57.746;11.780;2023-08-30T08:10:39;4.57;;;1.20;;
57826;SDS011;43656;57.746;11.780;2023-08-30T08:13:06;3.35;;;1.45;;
57826;SDS011;43656;57.746;11.780;2023-08-30T08:15:32;4.72;;;1.42;;
57826;SDS011;43656;57.746;11.780;2023-08-30T08:17:58;4.38;;;1.30;;
57826;SDS011;43656;57.746;11.780;2023-08-30T08:20:28;3.70;;;1.20;;
57826;SDS011;43656;57.746;11.780;2023-08-30T08:22:54;4.38;;;1.58;;
57826;SDS011;43656;57.746;11.780;2023-08-30T08:25:19;5.97;;;1.60;;
57826;SDS011;43656;57.746;11.780;2023-08-30T08:27:47;6.18;;;1.52;;
57826;SDS011;43656;57.746;11.780;2023-08-30T08:30:12;6.55;;;1.63;;
57826;SDS011;43656;57.746;11.780;2023-08-30T08:32:38;3.47;;;1.50;;
57826;SDS011;43656;57.746;11.780;2023-08-30T08:35:03;2.80;;;1.42;;
57826;SDS011;43656;57.746;11.780;2023-08-30T08:37:30;5.85;;;1.50;;
57826;SDS011;43656;57.746;11.780;2023-08-30T08:39:56;4.40;;;1.42;;
57826;SDS011;43656;57.746;11.780;2023-08-30T08:42:22;5.38;;;1.45;;
57826;SDS011;43656;57.746;11.780;2023-08-30T08:44:47;3.50;;;1.42;;
57826;SDS011;43656;57.746;11.780;2023-08-30T08:47:19;3.55;;;1.50;;
57826;SDS011;43656;57.746;11.780;2023-08-30T08:49:46;4.35;;;1.30;;
57826;SDS011;43656;57.746;11.780;2023-08-30T08:52:14;3.92;;;1.10;;
57826;SDS011;43656;57.746;11.780;2023-08-30T08:54:40;2.95;;;1.10;;
57826;SDS011;43656;57.746;11.780;2023-08-30T08:57:06;3.70;;;1.40;;
57826;SDS011;43656;57.746;11.780;2023-08-30T08:59:32;5.68;;;1.30;;
57826;SDS011;43656;57.746;11.780;2023-08-30T09:01:59;2.03;;;0.93;;
57826;SDS011;43656;57.746;11.780;2023-08-30T09:04:25;4.35;;;1.02;;
57826;SDS011;43656;57.746;11.780;2023-08-30T09:06:51;2.53;;;1.02;;
57826;SDS011;43656;57.746;11.780;2023-08-30T09:09:16;3.20;;;1.05;;
57826;SDS011;43656;57.746;11.780;2023-08-30T09:11:42;2.17;;;1.00;;
57826;SDS011;43656;57.746;11.780;2023-08-30T09:14:08;4.28;;;1.17;;
57826;SDS011;43656;57.746;11.780;2023-08-30T09:16:34;1.65;;;1.15;;
57826;SDS011;43656;57.746;11.780;2023-08-30T09:19:00;2.97;;;1.05;;
57826;SDS011;43656;57.746;11.780;2023-08-30T09:21:27;4.22;;;0.90;;
57826;SDS011;43656;57.746;11.780;2023-08-30T09:23:59;3.10;;;1.02;;
57826;SDS011;43656;57.746;11.780;2023-08-30T09:26:32;3.28;;;1.17;;
57826;SDS011;43656;57.746;11.780;2023-08-30T09:29:09;2.67;;;0.90;;
57826;SDS011;43656;57.746;11.780;2023-08-30T09:31:35;2.53;;;1.08;;
57826;SDS011;43656;57.746;11.780;2023-08-30T09:34:02;5.95;;;1.33;;
57826;SDS011;43656;57.746;11.780;2023-08-30T09:36:35;2.42;;;1.10;;
57826;SDS011;43656;57.746;11.780;2023-08-30T09:39:11;3.40;;;1.20;;
57826;SDS011;43656;57.746;11.780;2023-08-30T09:41:41;1.95;;;0.95;;
57826;SDS011;43656;57.746;11.780;2023-08-30T09:44:40;2.05;;;1.25;;
57826;SDS011;43656;57.746;11.780;2023-08-30T09:46:59;3.90;;;1.30;;
57826;SDS011;43656;57.746;11.780;2023-08-30T09:49:25;3.50;;;1.23;;
57826;SDS011;43656;57.746;11.780;2023-08-30T09:51:52;3.03;;;1.27;;
57826;SDS011;43656;57.746;11.780;2023-08-30T09:54:19;3.95;;;1.35;;
57826;SDS011;43656;57.746;11.780;2023-08-30T09:56:48;3.22;;;1.50;;
57826;SDS011;43656;57.746;11.780;2023-08-30T09:59:17;2.45;;;1.10;;
57826;SDS011;43656;57.746;11.780;2023-08-30T10:01:44;4.28;;;1.63;;
57826;SDS011;43656;57.746;11.780;2023-08-30T10:04:13;4.22;;;1.30;;
57826;SDS011;43656;57.746;11.780;2023-08-30T10:06:40;2.55;;;1.33;;
57826;SDS011;43656;57.746;11.780;2023-08-30T10:09:06;2.95;;;1.00;;
57826;SDS011;43656;57.746;11.780;2023-08-30T10:11:37;3.33;;;1.50;;
57826;SDS011;43656;57.746;11.780;2023-08-30T10:14:03;3.40;;;1.42;;
57826;SDS011;43656;57.746;11.780;2023-08-30T10:16:30;3.03;;;1.27;;
57826;SDS011;43656;57.746;11.780;2023-08-30T10:19:03;3.05;;;1.13;;
57826;SDS011;43656;57.746;11.780;2023-08-30T10:21:33;2.88;;;1.23;;
57826;SDS011;43656;57.746;11.780;2023-08-30T10:24:03;5.70;;;1.40;;
57826;SDS011;43656;57.746;11.780;2023-08-30T10:26:32;4.32;;;1.60;;
57826;SDS011;43656;57.746;11.780;2023-08-30T10:28:58;4.53;;;1.40;;
57826;SDS011;43656;57.746;11.780;2023-08-30T10:31:24;1.92;;;1.40;;
57826;SDS011;43656;57.746;11.780;2023-08-30T10:33:55;4.30;;;1.50;;
57826;SDS011;43656;57.746;11.780;2023-08-30T10:36:25;3.50;;;1.67;;
57826;SDS011;43656;57.746;11.780;2023-08-30T10:38:54;2.78;;;1.38;;
57826;SDS011;43656;57.746;11.780;2023-08-30T10:41:24;3.95;;;1.83;;
57826;SDS011;43656;57.746;11.780;2023-08-30T10:44:01;2.50;;;1.45;;
57826;SDS011;43656;57.746;11.780;2023-08-30T10:46:32;4.43;;;1.73;;
57826;SDS011;43656;57.746;11.780;2023-08-30T10:49:09;3.22;;;1.40;;
57826;SDS011;43656;57.746;11.780;2023-08-30T10:51:37;2.13;;;1.15;;
57826;SDS011;43656;57.746;11.780;2023-08-30T10:57:12;3.97;;;1.73;;
57826;SDS011;43656;57.746;11.780;2023-08-30T10:59:39;3.75;;;1.45;;
57826;SDS011;43656;57.746;11.780;2023-08-30T11:02:06;4.72;;;1.52;;
57826;SDS011;43656;57.746;11.780;2023-08-30T11:04:31;6.25;;;1.90;;
57826;SDS011;43656;57.746;11.780;2023-08-30T11:06:57;3.03;;;1.33;;
57826;SDS011;43656;57.746;11.780;2023-08-30T11:09:23;3.58;;;1.40;;
57826;SDS011;43656;57.746;11.780;2023-08-30T11:11:50;4.00;;;1.50;;
57826;SDS011;43656;57.746;11.780;2023-08-30T11:14:16;4.15;;;1.50;;
57826;SDS011;43656;57.746;11.780;2023-08-30T11:16:43;4.57;;;1.52;;
57826;SDS011;43656;57.746;11.780;2023-08-30T11:19:10;6.35;;;1.70;;
57826;SDS011;43656;57.746;11.780;2023-08-30T11:21:42;6.55;;;1.80;;
57826;SDS011;43656;57.746;11.780;2023-08-30T11:24:09;2.92;;;1.40;;
57826;SDS011;43656;57.746;11.780;2023-08-30T11:26:36;3.42;;;1.45;;
57826;SDS011;43656;57.746;11.780;2023-08-30T11:29:05;5.15;;;1.60;;
57826;SDS011;43656;57.746;11.780;2023-08-30T11:31:31;3.40;;;1.27;;
57826;SDS011;43656;57.746;11.780;2023-08-30T11:33:58;2.22;;;1.33;;
57826;SDS011;43656;57.746;11.780;2023-08-30T11:36:28;4.93;;;1.38;;
57826;SDS011;43656;57.746;11.780;2023-08-30T11:38:54;3.67;;;1.42;;
57826;SDS011;43656;57.746;11.780;2023-08-30T11:41:21;4.03;;;1.55;;
57826;SDS011;43656;57.746;11.780;2023-08-30T11:43:47;4.65;;;1.77;;
57826;SDS011;43656;57.746;11.780;2023-08-30T11:46:13;3.50;;;1.50;;
57826;SDS011;43656;57.746;11.780;2023-08-30T11:48:41;2.83;;;1.50;;
57826;SDS011;43656;57.746;11.780;2023-08-30T11:51:07;4.53;;;1.30;;
57826;SDS011;43656;57.746;11.780;2023-08-30T11:53:34;2.88;;;1.45;;
57826;SDS011;43656;57.746;11.780;2023-08-30T11:56:00;2.28;;;1.30;;
57826;SDS011;43656;57.746;11.780;2023-08-30T11:58:26;4.38;;;1.30;;
57826;SDS011;43656;57.746;11.780;2023-08-30T12:00:52;3.95;;;1.50;;
57826;SDS011;43656;57.746;11.780;2023-08-30T12:03:21;7.00;;;1.58;;
57826;SDS011;43656;57.746;11.780;2023-08-30T12:05:47;3.15;;;1.50;;
57826;SDS011;43656;57.746;11.780;2023-08-30T12:10:46;4.15;;;1.23;;
57826;SDS011;43656;57.746;11.780;2023-08-30T12:15:53;2.88;;;1.27;;
57826;SDS011;43656;57.746;11.780;2023-08-30T12:18:22;3.60;;;1.52;;
57826;SDS011;43656;57.746;11.780;2023-08-30T12:20:55;1.98;;;1.25;;
57826;SDS011;43656;57.746;11.780;2023-08-30T12:23:31;2.22;;;1.30;;
57826;SDS011;43656;57.746;11.780;2023-08-30T12:26:07;2.75;;;1.35;;
57826;SDS011;43656;57.746;11.780;2023-08-30T12:28:40;4.25;;;1.63;;
57826;SDS011;43656;57.746;11.780;2023-08-30T12:31:07;3.10;;;1.40;;
57826;SDS011;43656;57.746;11.780;2023-08-30T12:33:35;2.25;;;1.40;;
57826;SDS011;43656;57.746;11.780;2023-08-30T12:36:02;2.25;;;1.23;;
57826;SDS011;43656;57.746;11.780;2023-08-30T12:38:28;3.85;;;1.60;;
57826;SDS011;43656;57.746;11.780;2023-08-30T12:40:54;3.90;;;1.55;;
57826;SDS011;43656;57.746;11.780;2023-08-30T12:43:21;3.33;;;1.38;;
57826;SDS011;43656;57.746;11.780;2023-08-30T12:45:47;3.17;;;1.40;;
57826;SDS011;43656;57.746;11.780;2023-08-30T12:48:14;4.53;;;1.67;;
57826;SDS011;43656;57.746;11.780;2023-08-30T12:50:41;4.00;;;1.48;;
57826;SDS011;43656;57.746;11.780;2023-08-30T12:53:08;5.80;;;1.63;;
57826;SDS011;43656;57.746;11.780;2023-08-30T12:55:34;3.63;;;1.67;;
57826;SDS011;43656;57.746;11.780;2023-08-30T12:58:00;2.65;;;1.50;;
57826;SDS011;43656;57.746;11.780;2023-08-30T13:00:26;3.72;;;1.55;;
57826;SDS011;43656;57.746;11.780;2023-08-30T13:02:52;5.75;;;1.60;;
57826;SDS011;43656;57.746;11.780;2023-08-30T13:05:17;3.10;;;1.50;;
57826;SDS011;43656;57.746;11.780;2023-08-30T13:07:43;3.85;;;1.55;;
57826;SDS011;43656;57.746;11.780;2023-08-30T13:10:09;4.25;;;1.67;;
57826;SDS011;43656;57.746;11.780;2023-08-30T13:12:35;2.67;;;1.30;;
57826;SDS011;43656;57.746;11.780;2023-08-30T13:15:01;2.72;;;1.60;;
57826;SDS011;43656;57.746;11.780;2023-08-30T13:17:27;2.75;;;1.40;;
57826;SDS011;43656;57.746;11.780;2023-08-30T13:19:52;2.95;;;1.50;;
57826;SDS011;43656;57.746;11.780;2023-08-30T13:22:18;2.65;;;1.50;;
57826;SDS011;43656;57.746;11.780;2023-08-30T13:24:44;4.30;;;1.70;;
57826;SDS011;43656;57.746;11.780;2023-08-30T13:27:09;3.00;;;1.50;;
57826;SDS011;43656;57.746;11.780;2023-08-30T13:29:35;2.70;;;1.60;;
57826;SDS011;43656;57.746;11.780;2023-08-30T13:32:01;2.53;;;1.60;;
57826;SDS011;43656;57.746;11.780;2023-08-30T13:34:26;2.83;;;1.65;;
57826;SDS011;43656;57.746;11.780;2023-08-30T13:36:52;2.90;;;1.50;;
57826;SDS011;43656;57.746;11.780;2023-08-30T13:39:18;2.47;;;1.65;;
57826;SDS011;43656;57.746;11.780;2023-08-30T13:41:45;3.90;;;1.50;;
57826;SDS011;43656;57.746;11.780;2023-08-30T13:44:12;4.25;;;1.80;;
57826;SDS011;43656;57.746;11.780;2023-08-30T13:46:38;3.60;;;1.52;;
57826;SDS011;43656;57.746;11.780;2023-08-30T13:49:03;3.40;;;1.65;;
57826;SDS011;43656;57.746;11.780;2023-08-30T13:51:29;2.33;;;1.40;;
57826;SDS011;43656;57.746;11.780;2023-08-30T13:53:55;3.15;;;1.67;;
57826;SDS011;43656;57.746;11.780;2023-08-30T13:56:21;4.20;;;1.65;;
57826;SDS011;43656;57.746;11.780;2023-08-30T13:58:47;2.58;;;1.45;;
57826;SDS011;43656;57.746;11.780;2023-08-30T14:01:12;3.28;;;1.40;;
57826;SDS011;43656;57.746;11.780;2023-08-30T14:03:38;1.95;;;1.20;;
57826;SDS011;43656;57.746;11.780;2023-08-30T14:06:03;3.25;;;1.70;;
57826;SDS011;43656;57.746;11.780;2023-08-30T14:08:29;2.67;;;1.50;;
57826;SDS011;43656;57.746;11.780;2023-08-30T14:10:55;2.53;;;1.30;;
57826;SDS011;43656;57.746;11.780;2023-08-30T14:13:21;2.45;;;1.35;;
57826;SDS011;43656;57.746;11.780;2023-08-30T14:15:47;3.13;;;1.65;;
57826;SDS011;43656;57.746;11.780;2023-08-30T14:18:13;3.83;;;1.63;;
57826;SDS011;43656;57.746;11.780;2023-08-30T14:20:40;2.38;;;1.48;;
57826;SDS011;43656;57.746;11.780;2023-08-30T14:23:06;1.98;;;1.45;;
57826;SDS011;43656;57.746;11.780;2023-08-30T14:25:31;2.67;;;1.50;;
57826;SDS011;43656;57.746;11.780;2023-08-30T14:27:57;2.15;;;1.33;;
57826;SDS011;43656;57.746;11.780;2023-08-30T14:30:22;2.95;;;1.50;;
57826;SDS011;43656;57.746;11.780;2023-08-30T14:32:48;2.35;;;1.50;;
57826;SDS011;43656;57.746;11.780;2023-08-30T14:35:13;3.15;;;1.50;;
57826;SDS011;43656;57.746;11.780;2023-08-30T14:37:38;2.97;;;1.45;;
57826;SDS011;43656;57.746;11.780;2023-08-30T14:40:04;2.22;;;1.50;;
57826;SDS011;43656;57.746;11.780;2023-08-30T14:42:31;3.25;;;1.60;;
57826;SDS011;43656;57.746;11.780;2023-08-30T14:44:57;1.70;;;1.15;;